sensor_id;sensor_type;location;lat;lon;timestamp;temperature;humidity
83146;DHT22;73037;51.110;4.706;2024-02-21T00:00:40;10.20;72.60
83146;DHT22;73037;51.110;4.706;2024-02-21T00:03:07;10.10;72.80
83146;DHT22;73037;51.110;4.706;2024-02-21T00:05:32;10.10;72.80
83146;DHT22;73037;51.110;4.706;2024-02-21T00:08:02;10.10;72.50
83146;DHT22;73037;51.110;4.706;2024-02-21T00:10:28;10.10;72.40
83146;DHT22;73037;51.110;4.706;2024-02-21T00:12:54;10.10;72.50
83146;DHT22;73037;51.110;4.706;2024-02-21T00:15:20;10.10;72.60
83146;DHT22;73037;51.110;4.706;2024-02-21T00:17:46;10.10;72.40
83146;DHT22;73037;51.110;4.706;2024-02-21T00:20:13;10.10;72.50
83146;DHT22;73037;51.110;4.706;2024-02-21T00:22:38;10.10;72.40
83146;DHT22;73037;51.110;4.706;2024-02-21T00:25:04;10.10;72.60
83146;DHT22;73037;51.110;4.706;2024-02-21T00:27:30;10.10;72.60
83146;DHT22;73037;51.110;4.706;2024-02-21T00:29:59;10.10;72.50
83146;DHT22;73037;51.110;4.706;2024-02-21T00:32:24;10.10;72.40
83146;DHT22;73037;51.110;4.706;2024-02-21T00:34:50;10.10;72.10
83146;DHT22;73037;51.110;4.706;2024-02-21T00:37:28;10.10;72.50
83146;DHT22;73037;51.110;4.706;2024-02-21T00:39:54;10.20;72.20
83146;DHT22;73037;51.110;4.706;2024-02-21T00:42:20;10.20;72.30
83146;DHT22;73037;51.110;4.706;2024-02-21T00:44:46;10.10;72.30
83146;DHT22;73037;51.110;4.706;2024-02-21T00:47:12;10.10;72.20
83146;DHT22;73037;51.110;4.706;2024-02-21T00:49:38;10.10;72.40
83146;DHT22;73037;51.110;4.706;2024-02-21T00:52:03;10.00;72.30
83146;DHT22;73037;51.110;4.706;2024-02-21T00:54:29;10.00;72.40
83146;DHT22;73037;51.110;4.706;2024-02-21T00:56:55;10.00;72.70
83146;DHT22;73037;51.110;4.706;2024-02-21T00:59:20;10.00;72.50
83146;DHT22;73037;51.110;4.706;2024-02-21T01:01:46;10.00;72.40
83146;DHT22;73037;51.110;4.706;2024-02-21T01:04:12;10.00;72.20
83146;DHT22;73037;51.110;4.706;2024-02-21T01:06:37;9.90;72.30
83146;DHT22;73037;51.110;4.706;2024-02-21T01:09:03;9.80;72.60
83146;DHT22;73037;51.110;4.706;2024-02-21T01:11:29;9.70;72.50
83146;DHT22;73037;51.110;4.706;2024-02-21T01:13:55;9.70;72.50
83146;DHT22;73037;51.110;4.706;2024-02-21T01:16:21;9.60;72.80
83146;DHT22;73037;51.110;4.706;2024-02-21T01:18:46;9.60;72.90
83146;DHT22;73037;51.110;4.706;2024-02-21T01:21:12;9.60;72.80
83146;DHT22;73037;51.110;4.706;2024-02-21T01:23:38;9.60;72.80
83146;DHT22;73037;51.110;4.706;2024-02-21T01:26:04;9.70;73.00
83146;DHT22;73037;51.110;4.706;2024-02-21T01:28:30;9.70;72.60
83146;DHT22;73037;51.110;4.706;2024-02-21T01:30:56;9.80;72.40
83146;DHT22;73037;51.110;4.706;2024-02-21T01:33:22;9.90;72.40
83146;DHT22;73037;51.110;4.706;2024-02-21T01:35:48;9.90;72.20
83146;DHT22;73037;51.110;4.706;2024-02-21T01:38:15;9.90;71.90
83146;DHT22;73037;51.110;4.706;2024-02-21T01:40:40;9.90;71.80
83146;DHT22;73037;51.110;4.706;2024-02-21T01:43:15;9.90;72.00
83146;DHT22;73037;51.110;4.706;2024-02-21T01:45:42;10.00;72.00
83146;DHT22;73037;51.110;4.706;2024-02-21T01:48:07;10.00;71.90
83146;DHT22;73037;51.110;4.706;2024-02-21T01:50:33;10.00;71.90
83146;DHT22;73037;51.110;4.706;2024-02-21T01:52:59;10.00;71.70
83146;DHT22;73037;51.110;4.706;2024-02-21T01:55:25;10.00;71.80
83146;DHT22;73037;51.110;4.706;2024-02-21T01:57:51;10.00;71.50
83146;DHT22;73037;51.110;4.706;2024-02-21T02:00:17;10.00;71.70
83146;DHT22;73037;51.110;4.706;2024-02-21T02:02:44;10.00;71.90
83146;DHT22;73037;51.110;4.706;2024-02-21T02:05:11;9.90;72.00
83146;DHT22;73037;51.110;4.706;2024-02-21T02:07:37;9.80;71.80
83146;DHT22;73037;51.110;4.706;2024-02-21T02:10:03;9.70;72.20
83146;DHT22;73037;51.110;4.706;2024-02-21T02:12:29;9.60;72.20
83146;DHT22;73037;51.110;4.706;2024-02-21T02:15:02;9.50;72.60
83146;DHT22;73037;51.110;4.706;2024-02-21T02:17:30;9.50;72.80
83146;DHT22;73037;51.110;4.706;2024-02-21T02:19:56;9.50;73.00
83146;DHT22;73037;51.110;4.706;2024-02-21T02:22:28;9.50;73.20
83146;DHT22;73037;51.110;4.706;2024-02-21T02:24:54;9.50;73.20
83146;DHT22;73037;51.110;4.706;2024-02-21T02:27:20;9.60;72.80
83146;DHT22;73037;51.110;4.706;2024-02-21T02:29:45;9.60;72.90
83146;DHT22;73037;51.110;4.706;2024-02-21T02:32:11;9.70;73.00
83146;DHT22;73037;51.110;4.706;2024-02-21T02:34:37;9.80;72.80
83146;DHT22;73037;51.110;4.706;2024-02-21T02:37:03;9.80;72.60
83146;DHT22;73037;51.110;4.706;2024-02-21T02:39:28;9.80;72.10
83146;DHT22;73037;51.110;4.706;2024-02-21T02:41:57;9.80;72.10
83146;DHT22;73037;51.110;4.706;2024-02-21T02:44:23;9.80;71.90
83146;DHT22;73037;51.110;4.706;2024-02-21T02:46:49;9.80;72.00
83146;DHT22;73037;51.110;4.706;2024-02-21T02:49:15;9.80;72.20
83146;DHT22;73037;51.110;4.706;2024-02-21T02:51:44;9.80;72.30
83146;DHT22;73037;51.110;4.706;2024-02-21T02:54:10;9.80;72.40
83146;DHT22;73037;51.110;4.706;2024-02-21T02:56:36;9.80;72.50
83146;DHT22;73037;51.110;4.706;2024-02-21T02:59:02;9.80;72.50
83146;DHT22;73037;51.110;4.706;2024-02-21T03:01:28;9.80;72.50
83146;DHT22;73037;51.110;4.706;2024-02-21T03:03:54;9.80;72.50
83146;DHT22;73037;51.110;4.706;2024-02-21T03:06:20;9.80;72.40
83146;DHT22;73037;51.110;4.706;2024-02-21T03:08:45;9.80;72.60
83146;DHT22;73037;51.110;4.706;2024-02-21T03:11:11;9.80;72.50
83146;DHT22;73037;51.110;4.706;2024-02-21T03:13:37;9.70;72.20
83146;DHT22;73037;51.110;4.706;2024-02-21T03:16:02;9.60;72.60
83146;DHT22;73037;51.110;4.706;2024-02-21T03:18:28;9.50;72.80
83146;DHT22;73037;51.110;4.706;2024-02-21T03:20:54;9.50;72.90
83146;DHT22;73037;51.110;4.706;2024-02-21T03:23:20;9.50;73.00
83146;DHT22;73037;51.110;4.706;2024-02-21T03:25:45;9.50;72.80
83146;DHT22;73037;51.110;4.706;2024-02-21T03:28:11;9.50;73.00
83146;DHT22;73037;51.110;4.706;2024-02-21T03:30:37;9.50;73.20
83146;DHT22;73037;51.110;4.706;2024-02-21T03:33:02;9.60;73.00
83146;DHT22;73037;51.110;4.706;2024-02-21T03:35:28;9.60;72.90
83146;DHT22;73037;51.110;4.706;2024-02-21T03:37:54;9.60;72.90
83146;DHT22;73037;51.110;4.706;2024-02-21T03:40:20;9.60;73.00
83146;DHT22;73037;51.110;4.706;2024-02-21T03:42:45;9.60;72.90
83146;DHT22;73037;51.110;4.706;2024-02-21T03:45:11;9.60;73.20
83146;DHT22;73037;51.110;4.706;2024-02-21T03:47:36;9.50;73.20
83146;DHT22;73037;51.110;4.706;2024-02-21T03:50:02;9.50;73.00
83146;DHT22;73037;51.110;4.706;2024-02-21T03:52:28;9.50;73.20
83146;DHT22;73037;51.110;4.706;2024-02-21T03:54:53;9.50;72.90
83146;DHT22;73037;51.110;4.706;2024-02-21T03:57:20;9.40;72.90
83146;DHT22;73037;51.110;4.706;2024-02-21T03:59:46;9.40;73.00
83146;DHT22;73037;51.110;4.706;2024-02-21T04:02:15;9.40;73.30
83146;DHT22;73037;51.110;4.706;2024-02-21T04:04:43;9.50;73.00
83146;DHT22;73037;51.110;4.706;2024-02-21T04:07:12;9.50;73.00
83146;DHT22;73037;51.110;4.706;2024-02-21T04:09:37;9.50;72.60
83146;DHT22;73037;51.110;4.706;2024-02-21T04:12:03;9.50;72.80
83146;DHT22;73037;51.110;4.706;2024-02-21T04:14:29;9.50;72.70
83146;DHT22;73037;51.110;4.706;2024-02-21T04:16:55;9.60;73.00
83146;DHT22;73037;51.110;4.706;2024-02-21T04:19:20;9.60;73.00
83146;DHT22;73037;51.110;4.706;2024-02-21T04:21:46;9.60;72.60
83146;DHT22;73037;51.110;4.706;2024-02-21T04:24:12;9.60;72.40
83146;DHT22;73037;51.110;4.706;2024-02-21T04:26:37;9.60;72.60
83146;DHT22;73037;51.110;4.706;2024-02-21T04:29:03;9.70;72.50
83146;DHT22;73037;51.110;4.706;2024-02-21T04:31:29;9.60;72.70
83146;DHT22;73037;51.110;4.706;2024-02-21T04:33:54;9.70;72.30
83146;DHT22;73037;51.110;4.706;2024-02-21T04:36:20;9.70;72.20
83146;DHT22;73037;51.110;4.706;2024-02-21T04:38:45;9.70;72.30
83146;DHT22;73037;51.110;4.706;2024-02-21T04:41:11;9.70;71.90
83146;DHT22;73037;51.110;4.706;2024-02-21T04:43:37;9.60;72.60
83146;DHT22;73037;51.110;4.706;2024-02-21T04:49:06;9.70;71.80
83146;DHT22;73037;51.110;4.706;2024-02-21T04:51:32;9.60;72.20
83146;DHT22;73037;51.110;4.706;2024-02-21T04:53:57;9.60;71.90
83146;DHT22;73037;51.110;4.706;2024-02-21T04:56:23;9.60;72.00
83146;DHT22;73037;51.110;4.706;2024-02-21T04:58:49;9.60;72.20
83146;DHT22;73037;51.110;4.706;2024-02-21T05:01:14;9.60;72.30
83146;DHT22;73037;51.110;4.706;2024-02-21T05:03:40;9.60;72.30
83146;DHT22;73037;51.110;4.706;2024-02-21T05:06:06;9.60;72.00
83146;DHT22;73037;51.110;4.706;2024-02-21T05:08:33;9.60;72.30
83146;DHT22;73037;51.110;4.706;2024-02-21T05:10:58;9.60;72.10
83146;DHT22;73037;51.110;4.706;2024-02-21T05:13:24;9.60;72.00
83146;DHT22;73037;51.110;4.706;2024-02-21T05:15:49;9.60;72.20
83146;DHT22;73037;51.110;4.706;2024-02-21T05:18:15;9.60;72.40
83146;DHT22;73037;51.110;4.706;2024-02-21T05:20:43;9.60;72.60
83146;DHT22;73037;51.110;4.706;2024-02-21T05:23:08;9.60;72.50
83146;DHT22;73037;51.110;4.706;2024-02-21T05:25:34;9.50;72.20
83146;DHT22;73037;51.110;4.706;2024-02-21T05:28:00;9.50;72.40
83146;DHT22;73037;51.110;4.706;2024-02-21T05:30:28;9.50;72.20
83146;DHT22;73037;51.110;4.706;2024-02-21T05:32:54;9.40;72.50
83146;DHT22;73037;51.110;4.706;2024-02-21T05:35:24;9.50;72.50
83146;DHT22;73037;51.110;4.706;2024-02-21T05:37:50;9.50;72.30
83146;DHT22;73037;51.110;4.706;2024-02-21T05:40:18;9.50;72.20
83146;DHT22;73037;51.110;4.706;2024-02-21T05:42:43;9.50;72.50
83146;DHT22;73037;51.110;4.706;2024-02-21T05:45:09;9.40;72.40
83146;DHT22;73037;51.110;4.706;2024-02-21T05:47:35;9.40;72.60
83146;DHT22;73037;51.110;4.706;2024-02-21T05:53:22;9.40;72.60
83146;DHT22;73037;51.110;4.706;2024-02-21T05:55:48;9.40;72.60
83146;DHT22;73037;51.110;4.706;2024-02-21T05:58:13;9.40;73.00
83146;DHT22;73037;51.110;4.706;2024-02-21T06:00:39;9.40;73.00
83146;DHT22;73037;51.110;4.706;2024-02-21T06:03:05;9.40;72.80
83146;DHT22;73037;51.110;4.706;2024-02-21T06:05:31;9.40;72.80
83146;DHT22;73037;51.110;4.706;2024-02-21T06:07:57;9.30;72.80
83146;DHT22;73037;51.110;4.706;2024-02-21T06:10:23;9.30;73.00
83146;DHT22;73037;51.110;4.706;2024-02-21T06:12:48;9.30;72.80
83146;DHT22;73037;51.110;4.706;2024-02-21T06:15:14;9.20;72.80
83146;DHT22;73037;51.110;4.706;2024-02-21T06:17:39;9.20;73.00
83146;DHT22;73037;51.110;4.706;2024-02-21T06:20:06;9.20;73.00
83146;DHT22;73037;51.110;4.706;2024-02-21T06:22:31;9.20;73.10
83146;DHT22;73037;51.110;4.706;2024-02-21T06:24:57;9.20;72.90
83146;DHT22;73037;51.110;4.706;2024-02-21T06:27:23;9.20;73.00
83146;DHT22;73037;51.110;4.706;2024-02-21T06:29:49;9.30;73.20
83146;DHT22;73037;51.110;4.706;2024-02-21T06:32:15;9.20;73.00
83146;DHT22;73037;51.110;4.706;2024-02-21T06:34:41;9.20;72.90
83146;DHT22;73037;51.110;4.706;2024-02-21T06:37:06;9.30;73.20
83146;DHT22;73037;51.110;4.706;2024-02-21T06:39:32;9.30;72.80
83146;DHT22;73037;51.110;4.706;2024-02-21T06:41:57;9.30;73.10
83146;DHT22;73037;51.110;4.706;2024-02-21T06:44:23;9.40;73.00
83146;DHT22;73037;51.110;4.706;2024-02-21T06:46:49;9.40;73.20
83146;DHT22;73037;51.110;4.706;2024-02-21T06:49:14;9.40;73.00
83146;DHT22;73037;51.110;4.706;2024-02-21T06:51:44;9.40;72.70
83146;DHT22;73037;51.110;4.706;2024-02-21T06:54:10;9.40;72.60
83146;DHT22;73037;51.110;4.706;2024-02-21T06:56:36;9.40;72.80
83146;DHT22;73037;51.110;4.706;2024-02-21T06:59:03;9.50;72.20
83146;DHT22;73037;51.110;4.706;2024-02-21T07:01:31;9.40;72.20
83146;DHT22;73037;51.110;4.706;2024-02-21T07:03:57;9.40;72.60
83146;DHT22;73037;51.110;4.706;2024-02-21T07:06:23;9.50;72.50
83146;DHT22;73037;51.110;4.706;2024-02-21T07:08:48;9.50;72.40
83146;DHT22;73037;51.110;4.706;2024-02-21T07:11:14;9.60;72.30
83146;DHT22;73037;51.110;4.706;2024-02-21T07:13:40;9.50;72.20
83146;DHT22;73037;51.110;4.706;2024-02-21T07:16:07;9.60;72.00
83146;DHT22;73037;51.110;4.706;2024-02-21T07:18:32;9.60;72.10
83146;DHT22;73037;51.110;4.706;2024-02-21T07:20:58;9.60;72.00
83146;DHT22;73037;51.110;4.706;2024-02-21T07:23:24;9.60;72.00
83146;DHT22;73037;51.110;4.706;2024-02-21T07:25:50;9.60;72.00
83146;DHT22;73037;51.110;4.706;2024-02-21T07:28:15;9.60;72.20
83146;DHT22;73037;51.110;4.706;2024-02-21T07:30:42;9.70;72.20
83146;DHT22;73037;51.110;4.706;2024-02-21T07:33:08;9.70;71.60
83146;DHT22;73037;51.110;4.706;2024-02-21T07:35:33;9.80;71.80
83146;DHT22;73037;51.110;4.706;2024-02-21T07:37:59;9.80;71.70
83146;DHT22;73037;51.110;4.706;2024-02-21T07:40:25;9.80;71.90
83146;DHT22;73037;51.110;4.706;2024-02-21T07:42:50;9.70;71.80
83146;DHT22;73037;51.110;4.706;2024-02-21T07:45:16;9.70;72.00
83146;DHT22;73037;51.110;4.706;2024-02-21T07:47:43;9.80;72.20
83146;DHT22;73037;51.110;4.706;2024-02-21T07:50:09;9.80;72.30
83146;DHT22;73037;51.110;4.706;2024-02-21T07:52:35;9.80;72.50
83146;DHT22;73037;51.110;4.706;2024-02-21T07:55:00;9.80;72.80
83146;DHT22;73037;51.110;4.706;2024-02-21T07:57:26;9.80;73.10
83146;DHT22;73037;51.110;4.706;2024-02-21T07:59:52;9.80;73.40
83146;DHT22;73037;51.110;4.706;2024-02-21T08:02:17;9.80;73.50
83146;DHT22;73037;51.110;4.706;2024-02-21T08:04:43;9.80;74.10
83146;DHT22;73037;51.110;4.706;2024-02-21T08:07:09;9.80;74.40
83146;DHT22;73037;51.110;4.706;2024-02-21T08:09:35;9.70;75.30
83146;DHT22;73037;51.110;4.706;2024-02-21T08:12:03;9.60;75.50
83146;DHT22;73037;51.110;4.706;2024-02-21T08:14:29;9.60;76.00
83146;DHT22;73037;51.110;4.706;2024-02-21T08:16:55;9.60;75.90
83146;DHT22;73037;51.110;4.706;2024-02-21T08:19:21;9.50;76.20
83146;DHT22;73037;51.110;4.706;2024-02-21T08:21:47;9.50;76.40
83146;DHT22;73037;51.110;4.706;2024-02-21T08:24:16;9.40;76.50
83146;DHT22;73037;51.110;4.706;2024-02-21T08:26:42;9.40;76.80
83146;DHT22;73037;51.110;4.706;2024-02-21T08:29:08;9.40;76.80
83146;DHT22;73037;51.110;4.706;2024-02-21T08:31:33;9.40;76.70
83146;DHT22;73037;51.110;4.706;2024-02-21T08:34:00;9.50;76.70
83146;DHT22;73037;51.110;4.706;2024-02-21T08:36:36;9.50;76.30
83146;DHT22;73037;51.110;4.706;2024-02-21T08:39:02;9.50;76.40
83146;DHT22;73037;51.110;4.706;2024-02-21T08:41:31;9.60;75.80
83146;DHT22;73037;51.110;4.706;2024-02-21T08:47:00;9.50;75.90
83146;DHT22;73037;51.110;4.706;2024-02-21T08:49:29;9.50;75.80
83146;DHT22;73037;51.110;4.706;2024-02-21T08:55:35;9.70;75.40
83146;DHT22;73037;51.110;4.706;2024-02-21T09:01:23;9.70;74.70
83146;DHT22;73037;51.110;4.706;2024-02-21T09:07:11;9.70;74.20
83146;DHT22;73037;51.110;4.706;2024-02-21T09:09:37;9.70;73.70
83146;DHT22;73037;51.110;4.706;2024-02-21T09:12:05;9.70;73.40
83146;DHT22;73037;51.110;4.706;2024-02-21T09:14:32;9.70;73.40
83146;DHT22;73037;51.110;4.706;2024-02-21T09:16:58;9.70;73.00
83146;DHT22;73037;51.110;4.706;2024-02-21T09:19:24;9.80;73.00
83146;DHT22;73037;51.110;4.706;2024-02-21T09:21:49;10.00;73.30
83146;DHT22;73037;51.110;4.706;2024-02-21T09:24:15;10.00;72.20
83146;DHT22;73037;51.110;4.706;2024-02-21T09:26:41;10.10;71.70
83146;DHT22;73037;51.110;4.706;2024-02-21T09:29:06;10.10;71.60
83146;DHT22;73037;51.110;4.706;2024-02-21T09:31:32;10.20;71.40
83146;DHT22;73037;51.110;4.706;2024-02-21T09:33:57;10.30;71.50
83146;DHT22;73037;51.110;4.706;2024-02-21T09:36:23;10.40;70.90
83146;DHT22;73037;51.110;4.706;2024-02-21T09:38:49;10.40;70.60
83146;DHT22;73037;51.110;4.706;2024-02-21T09:41:22;10.40;70.70
83146;DHT22;73037;51.110;4.706;2024-02-21T09:43:50;10.40;70.00
83146;DHT22;73037;51.110;4.706;2024-02-21T09:46:19;10.40;70.20
83146;DHT22;73037;51.110;4.706;2024-02-21T09:48:57;10.60;70.40
83146;DHT22;73037;51.110;4.706;2024-02-21T09:51:57;10.80;69.60
83146;DHT22;73037;51.110;4.706;2024-02-21T09:54:24;10.80;69.10
83146;DHT22;73037;51.110;4.706;2024-02-21T09:57:08;10.90;68.90
83146;DHT22;73037;51.110;4.706;2024-02-21T09:59:34;11.00;68.30
83146;DHT22;73037;51.110;4.706;2024-02-21T10:02:00;11.10;69.10
83146;DHT22;73037;51.110;4.706;2024-02-21T10:04:26;11.10;67.40
83146;DHT22;73037;51.110;4.706;2024-02-21T10:06:52;11.10;67.70
83146;DHT22;73037;51.110;4.706;2024-02-21T10:09:25;11.10;68.20
83146;DHT22;73037;51.110;4.706;2024-02-21T10:11:55;11.10;67.90
83146;DHT22;73037;51.110;4.706;2024-02-21T10:14:22;11.20;67.90
83146;DHT22;73037;51.110;4.706;2024-02-21T10:16:48;11.30;68.20
83146;DHT22;73037;51.110;4.706;2024-02-21T10:19:21;11.40;67.80
83146;DHT22;73037;51.110;4.706;2024-02-21T10:22:09;11.50;67.60
83146;DHT22;73037;51.110;4.706;2024-02-21T10:24:35;11.50;67.20
83146;DHT22;73037;51.110;4.706;2024-02-21T10:27:04;11.50;67.60
83146;DHT22;73037;51.110;4.706;2024-02-21T10:29:31;11.40;67.60
83146;DHT22;73037;51.110;4.706;2024-02-21T10:34:32;11.40;68.40
83146;DHT22;73037;51.110;4.706;2024-02-21T10:37:06;11.40;67.20
83146;DHT22;73037;51.110;4.706;2024-02-21T10:39:32;11.50;67.50
83146;DHT22;73037;51.110;4.706;2024-02-21T10:42:03;11.40;67.30
83146;DHT22;73037;51.110;4.706;2024-02-21T10:44:34;11.40;67.40
83146;DHT22;73037;51.110;4.706;2024-02-21T10:47:21;11.40;68.00
83146;DHT22;73037;51.110;4.706;2024-02-21T10:49:53;11.50;67.50
83146;DHT22;73037;51.110;4.706;2024-02-21T11:03:10;11.70;66.80
83146;DHT22;73037;51.110;4.706;2024-02-21T11:05:36;11.70;67.00
83146;DHT22;73037;51.110;4.706;2024-02-21T11:08:03;11.60;67.10
83146;DHT22;73037;51.110;4.706;2024-02-21T11:10:31;11.60;66.90
83146;DHT22;73037;51.110;4.706;2024-02-21T11:13:09;11.70;66.70
83146;DHT22;73037;51.110;4.706;2024-02-21T11:22:20;12.30;65.70
83146;DHT22;73037;51.110;4.706;2024-02-21T11:31:15;12.90;65.00
83146;DHT22;73037;51.110;4.706;2024-02-21T11:33:42;13.00;64.00
83146;DHT22;73037;51.110;4.706;2024-02-21T11:46:06;13.10;63.40
83146;DHT22;73037;51.110;4.706;2024-02-21T11:48:32;13.10;64.40
83146;DHT22;73037;51.110;4.706;2024-02-21T11:54:24;13.10;63.90
83146;DHT22;73037;51.110;4.706;2024-02-21T12:00:27;12.90;63.50
83146;DHT22;73037;51.110;4.706;2024-02-21T12:03:12;12.90;64.00
83146;DHT22;73037;51.110;4.706;2024-02-21T12:05:38;12.90;64.00
83146;DHT22;73037;51.110;4.706;2024-02-21T12:08:04;12.90;63.80
83146;DHT22;73037;51.110;4.706;2024-02-21T12:20:37;12.60;63.70
83146;DHT22;73037;51.110;4.706;2024-02-21T12:23:03;12.50;64.00
83146;DHT22;73037;51.110;4.706;2024-02-21T12:25:29;12.50;64.00
83146;DHT22;73037;51.110;4.706;2024-02-21T12:27:55;12.50;63.90
83146;DHT22;73037;51.110;4.706;2024-02-21T12:30:21;12.50;64.30
83146;DHT22;73037;51.110;4.706;2024-02-21T12:32:47;12.30;64.20
83146;DHT22;73037;51.110;4.706;2024-02-21T12:35:14;12.40;64.30
83146;DHT22;73037;51.110;4.706;2024-02-21T12:41:17;12.30;64.00
83146;DHT22;73037;51.110;4.706;2024-02-21T12:47:04;12.20;64.60
83146;DHT22;73037;51.110;4.706;2024-02-21T12:49:31;12.10;64.50
83146;DHT22;73037;51.110;4.706;2024-02-21T12:51:57;12.10;64.60
83146;DHT22;73037;51.110;4.706;2024-02-21T12:54:23;12.00;64.60
83146;DHT22;73037;51.110;4.706;2024-02-21T12:56:49;11.90;65.00
83146;DHT22;73037;51.110;4.706;2024-02-21T12:59:15;12.00;64.30
83146;DHT22;73037;51.110;4.706;2024-02-21T13:01:41;12.00;65.00
83146;DHT22;73037;51.110;4.706;2024-02-21T13:04:06;11.90;64.60
83146;DHT22;73037;51.110;4.706;2024-02-21T13:06:51;11.90;64.60
83146;DHT22;73037;51.110;4.706;2024-02-21T13:09:17;11.90;64.90
83146;DHT22;73037;51.110;4.706;2024-02-21T13:11:43;11.90;65.30
83146;DHT22;73037;51.110;4.706;2024-02-21T13:37:47;12.30;64.40
83146;DHT22;73037;51.110;4.706;2024-02-21T13:43:16;12.40;64.20
83146;DHT22;73037;51.110;4.706;2024-02-21T13:45:56;12.30;64.50
83146;DHT22;73037;51.110;4.706;2024-02-21T13:48:22;12.30;64.40
83146;DHT22;73037;51.110;4.706;2024-02-21T13:50:47;12.20;64.90
83146;DHT22;73037;51.110;4.706;2024-02-21T13:53:13;12.20;65.30
83146;DHT22;73037;51.110;4.706;2024-02-21T13:55:38;12.20;65.80
83146;DHT22;73037;51.110;4.706;2024-02-21T13:58:06;12.20;66.30
83146;DHT22;73037;51.110;4.706;2024-02-21T14:00:31;12.20;66.50
83146;DHT22;73037;51.110;4.706;2024-02-21T14:02:59;12.10;66.30
83146;DHT22;73037;51.110;4.706;2024-02-21T14:05:26;12.00;66.00
83146;DHT22;73037;51.110;4.706;2024-02-21T14:10:56;11.80;68.30
83146;DHT22;73037;51.110;4.706;2024-02-21T14:13:24;11.80;68.40
83146;DHT22;73037;51.110;4.706;2024-02-21T14:15:50;11.80;68.60
83146;DHT22;73037;51.110;4.706;2024-02-21T14:18:16;11.70;69.40
83146;DHT22;73037;51.110;4.706;2024-02-21T14:20:42;11.60;69.60
83146;DHT22;73037;51.110;4.706;2024-02-21T14:23:08;11.50;70.20
83146;DHT22;73037;51.110;4.706;2024-02-21T14:25:33;11.40;70.70
83146;DHT22;73037;51.110;4.706;2024-02-21T14:27:59;11.30;71.60
83146;DHT22;73037;51.110;4.706;2024-02-21T14:30:26;11.20;72.30
83146;DHT22;73037;51.110;4.706;2024-02-21T14:32:52;11.10;72.60
83146;DHT22;73037;51.110;4.706;2024-02-21T14:35:17;11.00;72.40
83146;DHT22;73037;51.110;4.706;2024-02-21T14:37:43;10.90;73.10
83146;DHT22;73037;51.110;4.706;2024-02-21T14:40:09;10.80;73.00
83146;DHT22;73037;51.110;4.706;2024-02-21T14:42:35;10.70;73.70
83146;DHT22;73037;51.110;4.706;2024-02-21T14:45:01;10.70;74.50
83146;DHT22;73037;51.110;4.706;2024-02-21T14:47:30;10.70;75.40
83146;DHT22;73037;51.110;4.706;2024-02-21T14:49:56;10.70;74.50
83146;DHT22;73037;51.110;4.706;2024-02-21T14:52:22;10.60;75.30
83146;DHT22;73037;51.110;4.706;2024-02-21T14:54:49;10.50;75.30
83146;DHT22;73037;51.110;4.706;2024-02-21T14:57:17;10.50;75.10
83146;DHT22;73037;51.110;4.706;2024-02-21T14:59:43;10.40;75.80
83146;DHT22;73037;51.110;4.706;2024-02-21T15:02:09;10.40;76.10
83146;DHT22;73037;51.110;4.706;2024-02-21T15:04:35;10.30;75.60
83146;DHT22;73037;51.110;4.706;2024-02-21T15:07:01;10.20;76.60
83146;DHT22;73037;51.110;4.706;2024-02-21T15:09:28;10.20;77.00
83146;DHT22;73037;51.110;4.706;2024-02-21T15:11:54;10.10;76.60
83146;DHT22;73037;51.110;4.706;2024-02-21T15:14:19;10.00;77.50
83146;DHT22;73037;51.110;4.706;2024-02-21T15:16:49;10.00;77.20
83146;DHT22;73037;51.110;4.706;2024-02-21T15:19:15;10.00;77.80
83146;DHT22;73037;51.110;4.706;2024-02-21T15:21:41;10.00;77.90
83146;DHT22;73037;51.110;4.706;2024-02-21T15:24:06;10.00;77.90
83146;DHT22;73037;51.110;4.706;2024-02-21T15:26:32;9.80;78.60
83146;DHT22;73037;51.110;4.706;2024-02-21T15:28:58;9.90;78.70
83146;DHT22;73037;51.110;4.706;2024-02-21T15:31:23;9.80;78.90
83146;DHT22;73037;51.110;4.706;2024-02-21T15:33:53;9.80;79.30
83146;DHT22;73037;51.110;4.706;2024-02-21T15:36:19;9.70;78.80
83146;DHT22;73037;51.110;4.706;2024-02-21T15:38:49;9.70;79.00
83146;DHT22;73037;51.110;4.706;2024-02-21T15:41:14;9.60;79.30
83146;DHT22;73037;51.110;4.706;2024-02-21T15:43:40;9.60;79.00
83146;DHT22;73037;51.110;4.706;2024-02-21T15:46:10;9.60;80.30
83146;DHT22;73037;51.110;4.706;2024-02-21T15:48:36;9.60;80.30
83146;DHT22;73037;51.110;4.706;2024-02-21T15:51:02;9.60;79.30
83146;DHT22;73037;51.110;4.706;2024-02-21T15:53:29;9.60;80.10
83146;DHT22;73037;51.110;4.706;2024-02-21T15:55:55;9.60;80.60
83146;DHT22;73037;51.110;4.706;2024-02-21T15:58:20;9.60;80.20
83146;DHT22;73037;51.110;4.706;2024-02-21T16:00:48;9.60;80.40
83146;DHT22;73037;51.110;4.706;2024-02-21T16:03:14;9.60;80.10
83146;DHT22;73037;51.110;4.706;2024-02-21T16:05:41;9.60;80.40
83146;DHT22;73037;51.110;4.706;2024-02-21T16:08:07;9.60;79.90
83146;DHT22;73037;51.110;4.706;2024-02-21T16:10:33;9.50;80.20
83146;DHT22;73037;51.110;4.706;2024-02-21T16:12:59;9.50;80.20
83146;DHT22;73037;51.110;4.706;2024-02-21T16:15:25;9.60;80.70
83146;DHT22;73037;51.110;4.706;2024-02-21T16:17:50;9.60;81.20
83146;DHT22;73037;51.110;4.706;2024-02-21T16:20:17;9.60;80.80
83146;DHT22;73037;51.110;4.706;2024-02-21T16:22:43;9.60;80.30
83146;DHT22;73037;51.110;4.706;2024-02-21T16:25:09;9.50;80.70
83146;DHT22;73037;51.110;4.706;2024-02-21T16:27:35;9.50;81.30
83146;DHT22;73037;51.110;4.706;2024-02-21T16:30:01;9.50;80.70
83146;DHT22;73037;51.110;4.706;2024-02-21T16:32:27;9.50;80.70
83146;DHT22;73037;51.110;4.706;2024-02-21T16:34:53;9.40;81.50
83146;DHT22;73037;51.110;4.706;2024-02-21T16:37:18;9.50;81.30
83146;DHT22;73037;51.110;4.706;2024-02-21T16:39:44;9.40;81.30
83146;DHT22;73037;51.110;4.706;2024-02-21T16:42:10;9.40;81.10
83146;DHT22;73037;51.110;4.706;2024-02-21T16:44:36;9.40;81.00
83146;DHT22;73037;51.110;4.706;2024-02-21T16:47:03;9.40;81.10
83146;DHT22;73037;51.110;4.706;2024-02-21T16:49:29;9.40;81.50
83146;DHT22;73037;51.110;4.706;2024-02-21T16:51:55;9.40;81.00
83146;DHT22;73037;51.110;4.706;2024-02-21T16:54:24;9.40;81.80
83146;DHT22;73037;51.110;4.706;2024-02-21T16:56:53;9.40;81.50
83146;DHT22;73037;51.110;4.706;2024-02-21T16:59:19;9.40;80.80
83146;DHT22;73037;51.110;4.706;2024-02-21T17:01:45;9.40;81.40
83146;DHT22;73037;51.110;4.706;2024-02-21T17:04:14;9.40;82.30
83146;DHT22;73037;51.110;4.706;2024-02-21T17:06:39;9.40;81.90
83146;DHT22;73037;51.110;4.706;2024-02-21T17:09:05;9.30;81.70
83146;DHT22;73037;51.110;4.706;2024-02-21T17:11:37;9.30;81.40
83146;DHT22;73037;51.110;4.706;2024-02-21T17:14:03;9.40;82.00
83146;DHT22;73037;51.110;4.706;2024-02-21T17:16:29;9.40;82.20
83146;DHT22;73037;51.110;4.706;2024-02-21T17:18:56;9.30;82.40
83146;DHT22;73037;51.110;4.706;2024-02-21T17:21:21;9.30;82.10
83146;DHT22;73037;51.110;4.706;2024-02-21T17:23:47;9.30;81.80
83146;DHT22;73037;51.110;4.706;2024-02-21T17:26:14;9.20;82.40